Terminal Aerodrome Forecast
Issued by NWS

Home | Current Version | Previous Version | Text Only | Print | Product List | Glossary On
Versions: 1 2 3 4 5 6 7 8 9 10 11 12 13 14
000
FTUS45 KRIW 212300
TAFBPI
TAF
KBPI 212330Z 2200/2224 28008KT P6SM SCT090 BKN250
     FM220500 17006KT P6SM BKN080
     FM220900 17006KT P6SM SCT050 BKN070
     FM221700 18012G18KT P6SM SCT070 BKN120
     FM222000 22024G34KT P6SM VCSH BKN070=

USA.gov is the U.S. government's official web portal to all federal, state and local government web resources and services.